createdAt,value
2018-03-19T00:00:39.661Z,69.97
2018-03-19T00:03:10.397Z,69.79
2018-03-19T00:05:41.144Z,70.69
2018-03-19T00:08:11.873Z,69.42
2018-03-19T00:10:42.617Z,70.56
2018-03-19T00:13:13.345Z,71.06
2018-03-19T00:15:44.113Z,69.49
2018-03-19T00:18:14.842Z,69.89
2018-03-19T00:20:45.585Z,69.39
2018-03-19T00:23:16.329Z,69.89
2018-03-19T00:25:47.068Z,70.10
2018-03-19T00:28:17.824Z,69.83
2018-03-19T00:30:48.560Z,70.89
2018-03-19T00:33:19.284Z,69.54
2018-03-19T00:35:50.028Z,70.67
2018-03-19T00:38:20.772Z,71.79
2018-03-19T00:40:51.545Z,70.83
2018-03-19T00:43:22.299Z,70.37
2018-03-19T00:45:53.052Z,69.37
2018-03-19T00:48:23.788Z,69.78
2018-03-19T00:50:54.544Z,69.16
2018-03-19T00:53:25.268Z,69.69
2018-03-19T00:55:56.020Z,68.80
2018-03-19T00:58:26.761Z,68.34
2018-03-19T01:00:57.541Z,68.26
2018-03-19T01:03:28.285Z,70.60
2018-03-19T01:05:59.037Z,70.87
2018-03-19T01:08:29.777Z,68.30
2018-03-19T01:11:00.530Z,68.50
2018-03-19T01:13:31.269Z,67.98
2018-03-19T01:16:02.028Z,68.42
2018-03-19T01:18:32.765Z,68.26
2018-03-19T01:21:03.528Z,69.35
2018-03-19T01:23:34.260Z,69.72
2018-03-19T01:26:05.028Z,69.88
2018-03-19T01:28:35.755Z,68.46
2018-03-19T01:31:06.498Z,68.19
2018-03-19T01:33:37.245Z,67.61
2018-03-19T01:36:07.992Z,68.75
2018-03-19T01:38:38.717Z,68.73
2018-03-19T01:41:09.460Z,69.32
2018-03-19T01:43:40.188Z,69.39
2018-03-19T01:46:10.928Z,67.49
2018-03-19T01:48:41.677Z,68.78
2018-03-19T01:51:12.448Z,69.79
2018-03-19T01:53:43.192Z,68.11
2018-03-19T01:56:13.944Z,69.15
2018-03-19T01:58:44.677Z,68.06
2018-03-19T02:01:15.432Z,67.83
2018-03-19T02:03:46.166Z,68.99
2018-03-19T02:06:16.913Z,69.37
2018-03-19T02:08:47.644Z,68.15
2018-03-19T02:11:18.412Z,70.06
2018-03-19T02:13:49.144Z,69.41
2018-03-19T02:16:19.884Z,69.85
2018-03-19T02:18:50.628Z,68.63
2018-03-19T02:21:21.394Z,67.84
2018-03-19T02:23:52.137Z,67.73
2018-03-19T02:26:22.897Z,69.56
2018-03-19T02:28:53.624Z,69.40
2018-03-19T02:31:24.394Z,68.60
2018-03-19T02:33:55.128Z,68.54
2018-03-19T02:36:25.892Z,67.30
2018-03-19T02:38:56.616Z,68.86
2018-03-19T02:41:27.360Z,68.07
2018-03-19T02:43:58.121Z,67.57
2018-03-19T02:46:28.853Z,67.46
2018-03-19T02:48:59.637Z,67.75
2018-03-19T02:51:30.400Z,67.72
2018-03-19T02:54:01.174Z,69.46
2018-03-19T02:56:31.925Z,68.81
2018-03-19T02:59:02.665Z,68.70
2018-03-19T03:01:33.433Z,68.89
2018-03-19T03:04:04.177Z,68.68
2018-03-19T03:06:34.945Z,69.97
2018-03-19T03:09:05.675Z,69.50
2018-03-19T03:11:36.424Z,67.41
2018-03-19T03:14:07.209Z,67.07
2018-03-19T03:16:37.991Z,68.04
2018-03-19T03:19:08.733Z,69.35
2018-03-19T03:21:39.492Z,68.01
2018-03-19T03:24:10.228Z,68.51
2018-03-19T03:26:40.995Z,68.20
2018-03-19T03:29:11.724Z,68.29
2018-03-19T03:31:42.501Z,69.56
2018-03-19T03:34:13.240Z,69.07
2018-03-19T03:36:43.984Z,69.55
2018-03-19T03:39:14.717Z,70.43
2018-03-19T03:41:45.489Z,68.98
2018-03-19T03:44:16.228Z,69.80
2018-03-19T03:46:46.996Z,69.41
2018-03-19T03:49:17.740Z,69.75
2018-03-19T03:51:48.510Z,69.88
2018-03-19T03:54:19.249Z,69.04
2018-03-19T03:56:50.012Z,69.31
2018-03-19T03:59:20.752Z,68.54
2018-03-19T04:01:51.496Z,69.52
2018-03-19T04:04:22.240Z,69.94
2018-03-19T04:06:52.984Z,69.57
2018-03-19T04:09:23.725Z,69.46
2018-03-19T04:11:54.476Z,69.02
2018-03-19T04:14:25.200Z,67.91
2018-03-19T04:16:55.961Z,69.13
2018-03-19T04:19:26.700Z,69.25
2018-03-19T04:21:57.447Z,70.27
2018-03-19T04:24:28.185Z,68.99
2018-03-19T04:26:58.921Z,69.17
2018-03-19T04:29:29.688Z,68.31
2018-03-19T04:32:00.450Z,68.52
2018-03-19T04:34:31.172Z,69.18
2018-03-19T04:37:01.924Z,68.39
2018-03-19T04:39:32.657Z,69.43
2018-03-19T04:42:03.404Z,68.77
2018-03-19T04:44:34.139Z,68.03
2018-03-19T04:47:04.889Z,68.37
2018-03-19T04:49:35.642Z,70.38
2018-03-19T04:52:06.396Z,69.52
2018-03-19T04:54:37.124Z,70.48
2018-03-19T04:57:07.864Z,70.30
2018-03-19T04:59:38.596Z,69.04
2018-03-19T05:02:09.345Z,68.48
2018-03-19T05:04:40.093Z,68.63
2018-03-19T05:07:10.856Z,69.00
2018-03-19T05:09:41.580Z,67.96
2018-03-19T05:12:12.339Z,68.16
2018-03-19T05:14:43.073Z,68.17
2018-03-19T05:17:13.812Z,68.80
2018-03-19T05:19:44.544Z,69.25
2018-03-19T05:22:15.302Z,67.69
2018-03-19T05:24:46.061Z,69.46
2018-03-19T05:27:16.808Z,67.47
2018-03-19T05:29:47.554Z,68.54
2018-03-19T05:32:18.312Z,67.70
2018-03-19T05:34:49.036Z,68.88
2018-03-19T05:37:19.780Z,68.95
2018-03-19T05:39:50.515Z,68.31
2018-03-19T05:42:21.256Z,68.37
2018-03-19T05:44:51.984Z,68.50
2018-03-19T05:47:22.737Z,66.48
2018-03-19T05:49:53.485Z,67.44
2018-03-19T05:52:24.232Z,68.18
2018-03-19T05:54:54.964Z,68.39
2018-03-19T05:57:25.720Z,66.28
2018-03-19T05:59:56.461Z,67.52
2018-03-19T06:02:27.253Z,66.47
2018-03-19T06:04:57.980Z,66.54
2018-03-19T06:07:28.744Z,67.58
2018-03-19T06:09:59.479Z,67.63
2018-03-19T06:12:30.229Z,67.57
2018-03-19T06:15:00.977Z,66.99
2018-03-19T06:17:31.745Z,67.26
2018-03-19T06:20:02.497Z,67.14
2018-03-19T06:22:33.256Z,66.05
2018-03-19T06:25:03.984Z,66.15
2018-03-19T06:27:34.756Z,66.03
2018-03-19T06:30:05.488Z,66.74
2018-03-19T06:32:36.236Z,66.12
2018-03-19T06:35:06.986Z,65.60
2018-03-19T06:37:37.756Z,66.39
2018-03-19T06:40:08.496Z,66.31
2018-03-19T06:42:39.248Z,67.21
2018-03-19T06:45:09.984Z,65.96
2018-03-19T06:47:40.740Z,65.30
2018-03-19T06:50:11.473Z,65.96
2018-03-19T06:52:42.232Z,65.91
2018-03-19T06:55:12.972Z,65.28
2018-03-19T06:57:43.707Z,65.74
2018-03-19T07:00:14.444Z,65.49
2018-03-19T07:02:45.192Z,66.04
2018-03-19T07:05:15.924Z,66.18
2018-03-19T07:07:46.672Z,66.11
2018-03-19T07:10:17.410Z,66.68
2018-03-19T07:12:48.184Z,65.78
2018-03-19T07:15:18.920Z,65.42
2018-03-19T07:17:49.665Z,64.87
2018-03-19T07:20:20.413Z,65.59
2018-03-19T07:22:51.176Z,64.06
2018-03-19T07:25:21.904Z,65.32
2018-03-19T07:27:52.652Z,65.29
2018-03-19T07:30:23.372Z,65.03
2018-03-19T07:32:54.137Z,62.72
2018-03-19T07:35:24.876Z,65.18
2018-03-19T07:37:55.640Z,63.32
2018-03-19T07:40:26.385Z,63.74
2018-03-19T07:42:57.161Z,63.37
2018-03-19T07:45:27.905Z,63.75
2018-03-19T07:47:58.649Z,63.17
2018-03-19T07:50:29.386Z,63.90
2018-03-19T07:53:00.140Z,61.42
2018-03-19T07:55:30.884Z,63.06
2018-03-19T07:58:01.636Z,63.25
2018-03-19T08:00:32.372Z,61.23
2018-03-19T08:03:03.148Z,62.65
2018-03-19T08:05:33.888Z,62.42
2018-03-19T08:08:04.640Z,62.93
2018-03-19T08:10:35.376Z,61.87
2018-03-19T08:13:06.109Z,63.15
2018-03-19T08:15:36.838Z,61.52
2018-03-19T08:18:07.581Z,61.37
2018-03-19T08:20:38.322Z,61.58
2018-03-19T08:23:09.068Z,61.54
2018-03-19T08:25:39.804Z,61.25
2018-03-19T08:28:10.582Z,62.23
2018-03-19T08:30:41.328Z,62.26
2018-03-19T08:33:12.092Z,60.75
2018-03-19T08:35:42.821Z,60.88
2018-03-19T08:38:13.566Z,60.73
2018-03-19T08:40:44.300Z,61.49
2018-03-19T08:43:15.047Z,61.40
2018-03-19T08:45:45.780Z,60.05
2018-03-19T08:48:16.540Z,59.50
2018-03-19T08:50:47.297Z,60.57
2018-03-19T08:53:18.041Z,60.28
2018-03-19T08:55:48.777Z,61.15
2018-03-19T08:58:19.516Z,59.50
2018-03-19T09:00:50.249Z,59.32
2018-03-19T09:03:21.005Z,61.68
2018-03-19T09:05:51.742Z,59.25
2018-03-19T09:08:22.501Z,59.99
2018-03-19T09:10:53.288Z,60.74
2018-03-19T09:13:24.045Z,60.92
2018-03-19T09:15:54.785Z,59.54
2018-03-19T09:18:25.534Z,61.06
2018-03-19T09:20:56.277Z,59.28
2018-03-19T09:23:27.016Z,59.92
2018-03-19T09:25:57.765Z,58.66
2018-03-19T09:28:28.528Z,58.92
2018-03-19T09:30:59.285Z,59.55
2018-03-19T09:33:30.024Z,58.24
2018-03-19T09:36:00.748Z,58.12
2018-03-19T09:38:31.493Z,57.25
2018-03-19T09:41:02.233Z,57.18
2018-03-19T09:43:32.976Z,57.12
2018-03-19T09:46:03.717Z,56.51
2018-03-19T09:48:34.468Z,58.00
2018-03-19T09:51:05.221Z,58.83
2018-03-19T09:53:35.972Z,56.44
2018-03-19T09:56:06.713Z,58.03
2018-03-19T09:58:37.473Z,55.61
2018-03-19T10:01:08.220Z,57.15
2018-03-19T10:03:38.980Z,57.25
2018-03-19T10:06:09.721Z,56.24
2018-03-19T10:08:40.472Z,55.31
2018-03-19T10:11:11.205Z,55.11
2018-03-19T10:13:41.960Z,56.22
2018-03-19T10:16:12.708Z,54.14
2018-03-19T10:18:43.476Z,56.24
2018-03-19T10:21:14.200Z,55.51
2018-03-19T10:23:44.945Z,56.10
2018-03-19T10:26:15.680Z,54.55
2018-03-19T10:28:46.424Z,54.46
2018-03-19T10:31:17.152Z,54.39
2018-03-19T10:33:47.901Z,53.07
2018-03-19T10:36:18.640Z,53.78
2018-03-19T10:38:49.412Z,50.52
2018-03-19T10:41:20.151Z,51.69
2018-03-19T10:43:50.893Z,53.87
2018-03-19T10:46:21.653Z,53.31
2018-03-19T10:48:52.420Z,53.16
2018-03-19T10:51:23.218Z,51.88
2018-03-19T10:53:53.905Z,49.84
2018-03-19T10:56:24.650Z,52.02
2018-03-19T10:58:55.417Z,50.06
2018-03-19T11:01:27.048Z,50.11
2018-03-19T11:04:00.763Z,50.80
2018-03-19T11:06:36.458Z,49.42
2018-03-19T11:09:13.304Z,49.62
2018-03-19T11:11:44.056Z,50.48
2018-03-19T11:14:14.808Z,48.87
2018-03-19T11:16:45.557Z,50.27
2018-03-19T11:19:16.312Z,50.67
2018-03-19T11:21:47.044Z,49.04
2018-03-19T11:24:17.809Z,48.49
2018-03-19T11:26:48.552Z,51.31
2018-03-19T11:29:19.328Z,49.77
2018-03-19T11:31:50.082Z,50.57
2018-03-19T11:34:20.844Z,50.28
2018-03-19T11:36:51.591Z,49.33
2018-03-19T11:39:22.361Z,49.42
2018-03-19T11:41:53.102Z,48.90
2018-03-19T11:44:23.849Z,46.32
2018-03-19T11:46:54.592Z,47.02
2018-03-19T11:49:25.388Z,46.19
2018-03-19T11:51:56.107Z,45.78
2018-03-19T11:54:26.858Z,47.06
2018-03-19T11:56:57.586Z,47.67
2018-03-19T11:59:28.348Z,47.68
2018-03-19T12:01:59.096Z,47.95
2018-03-19T12:04:29.908Z,45.86
2018-03-19T12:07:00.599Z,46.14
2018-03-19T12:09:31.349Z,44.35
2018-03-19T12:12:02.104Z,44.79
2018-03-19T12:14:32.840Z,46.05
2018-03-19T12:17:03.580Z,46.74
2018-03-19T12:19:34.350Z,48.26
2018-03-19T12:22:05.098Z,44.05
2018-03-19T12:24:35.857Z,46.81
2018-03-19T12:27:06.584Z,46.65
2018-03-19T12:29:37.344Z,48.23
2018-03-19T12:32:08.081Z,46.33
2018-03-19T12:34:38.850Z,46.54
2018-03-19T12:37:09.597Z,44.98
2018-03-19T12:39:40.344Z,42.95
2018-03-19T12:42:11.091Z,43.60
2018-03-19T12:44:41.837Z,44.85
2018-03-19T12:47:12.593Z,45.04
2018-03-19T12:49:43.365Z,46.67
2018-03-19T12:52:14.105Z,43.27
2018-03-19T12:54:44.864Z,44.02
2018-03-19T12:57:15.600Z,42.35
2018-03-19T12:59:46.356Z,42.43
2018-03-19T13:02:17.166Z,44.85
2018-03-19T13:04:47.885Z,44.04
2018-03-19T13:07:18.626Z,44.57
2018-03-19T13:09:49.389Z,44.59
2018-03-19T13:12:20.140Z,46.42
2018-03-19T13:14:50.976Z,45.32
2018-03-19T13:17:21.733Z,46.01
2018-03-19T13:19:52.489Z,45.02
2018-03-19T13:22:23.230Z,44.66
2018-03-19T13:24:53.988Z,45.28
2018-03-19T13:27:24.721Z,46.03
2018-03-19T13:29:55.472Z,52.19
2018-03-19T13:32:26.212Z,48.19
2018-03-19T13:34:56.968Z,47.28
2018-03-19T13:37:27.710Z,44.62
2018-03-19T13:39:58.482Z,45.12
2018-03-19T13:42:29.216Z,47.54
2018-03-19T13:45:00.004Z,47.29
2018-03-19T13:47:30.737Z,50.92
2018-03-19T13:50:01.564Z,50.33
2018-03-19T13:52:32.308Z,50.34
2018-03-19T13:55:03.055Z,51.46
2018-03-19T13:57:33.784Z,51.30
2018-03-19T14:00:04.532Z,47.08
2018-03-19T14:02:35.301Z,47.23
2018-03-19T14:05:13.009Z,48.94
2018-03-19T14:07:43.746Z,49.53
2018-03-19T14:10:14.501Z,52.10
2018-03-19T14:12:45.236Z,45.63
2018-03-19T14:15:16.014Z,41.99
2018-03-19T14:17:46.759Z,36.45
2018-03-19T14:20:17.537Z,35.26
2018-03-19T14:22:48.289Z,34.89
2018-03-19T14:25:19.059Z,33.59
2018-03-19T14:27:49.929Z,36.17
2018-03-19T14:30:20.564Z,35.03
2018-03-19T14:32:51.320Z,33.80
2018-03-19T14:35:22.070Z,36.74
2018-03-19T14:37:52.807Z,38.66
2018-03-19T14:40:23.560Z,43.62
2018-03-19T14:42:54.313Z,42.17
2018-03-19T14:45:25.065Z,43.15
2018-03-19T14:47:55.811Z,44.61
2018-03-19T14:53:20.317Z,47.43
2018-03-19T14:55:51.081Z,49.03
2018-03-19T14:58:21.810Z,48.65
2018-03-19T15:00:52.568Z,51.16
2018-03-19T15:03:23.305Z,52.66
2018-03-19T15:05:54.073Z,53.97
2018-03-19T15:08:24.813Z,53.62
2018-03-19T15:10:55.588Z,53.51
2018-03-19T15:13:26.333Z,51.38
2018-03-19T15:15:57.101Z,52.71
2018-03-19T15:18:27.836Z,53.41
2018-03-19T15:21:03.250Z,52.61
2018-03-19T15:23:34.000Z,58.99
2018-03-19T15:26:04.748Z,55.66
2018-03-19T15:28:35.476Z,56.56
2018-03-19T15:31:06.297Z,57.33
2018-03-19T15:33:38.116Z,59.14
2018-03-19T15:36:08.873Z,57.56
2018-03-19T15:38:39.612Z,59.24
2018-03-19T15:41:10.361Z,57.20
2018-03-19T15:43:41.093Z,57.95
2018-03-19T15:46:11.848Z,55.34
2018-03-19T15:48:42.593Z,56.97
2018-03-19T15:51:13.336Z,59.13
2018-03-19T15:53:44.061Z,60.94
2018-03-19T15:56:14.825Z,60.65
2018-03-19T15:58:45.560Z,58.33
2018-03-19T16:01:16.317Z,54.65
2018-03-19T16:03:47.072Z,57.68
2018-03-19T16:06:17.857Z,57.41
2018-03-19T16:08:48.608Z,56.21
2018-03-19T16:11:19.360Z,56.45
2018-03-19T16:13:50.105Z,58.91
2018-03-19T16:16:20.856Z,58.01
2018-03-19T16:18:51.593Z,58.64
2018-03-19T16:21:22.348Z,55.70
2018-03-19T16:23:53.085Z,57.21
2018-03-19T16:26:23.839Z,52.32
2018-03-19T16:28:54.596Z,54.12
2018-03-19T16:31:25.369Z,54.69
2018-03-19T16:33:58.172Z,55.37
2018-03-19T16:36:28.924Z,54.17
2018-03-19T16:38:59.668Z,55.23
2018-03-19T16:41:30.453Z,54.70
2018-03-19T16:44:01.200Z,54.91
2018-03-19T16:46:31.957Z,55.30
2018-03-19T16:49:04.741Z,55.02
2018-03-19T16:51:35.532Z,58.72
2018-03-19T16:54:06.313Z,57.07
2018-03-19T16:56:37.058Z,55.35
2018-03-19T16:59:07.920Z,57.61
2018-03-19T17:01:38.699Z,58.25
2018-03-19T17:04:09.440Z,60.26
2018-03-19T17:06:40.193Z,59.31
2018-03-19T17:09:10.931Z,60.31
2018-03-19T17:11:41.701Z,59.63
2018-03-19T17:14:12.437Z,58.83
2018-03-19T17:16:43.188Z,57.47
2018-03-19T17:19:13.915Z,57.79
2018-03-19T17:21:44.674Z,59.64
2018-03-19T17:24:15.432Z,59.97
2018-03-19T17:26:46.200Z,58.12
2018-03-19T17:29:16.950Z,58.36
2018-03-19T17:31:47.724Z,59.00
2018-03-19T17:34:18.472Z,58.62
2018-03-19T17:36:49.227Z,59.41
2018-03-19T17:39:19.961Z,61.11
2018-03-19T17:41:50.740Z,59.66
2018-03-19T17:44:21.480Z,59.78
2018-03-19T17:46:52.240Z,61.32
2018-03-19T17:49:22.993Z,62.10
2018-03-19T17:51:53.750Z,61.23
2018-03-19T17:54:24.488Z,62.35
2018-03-19T17:56:55.248Z,62.31
2018-03-19T17:59:25.981Z,60.68
2018-03-19T18:01:56.756Z,62.03
2018-03-19T18:04:27.493Z,61.46
2018-03-19T18:06:58.284Z,62.27
2018-03-19T18:09:29.035Z,62.87
2018-03-19T18:11:59.801Z,60.90
2018-03-19T18:14:30.531Z,60.57
2018-03-19T18:17:01.296Z,61.92
2018-03-19T18:19:32.028Z,61.90
2018-03-19T18:22:02.830Z,61.87
2018-03-19T18:24:33.589Z,61.54
2018-03-19T18:27:04.336Z,61.60
2018-03-19T18:29:35.086Z,60.66
2018-03-19T18:32:05.834Z,61.05
2018-03-19T18:34:36.580Z,62.04
2018-03-19T18:37:07.338Z,61.85
2018-03-19T18:39:38.121Z,63.70
2018-03-19T18:42:08.819Z,64.20
2018-03-19T18:44:39.561Z,62.33
2018-03-19T18:47:10.348Z,62.91
2018-03-19T18:49:41.108Z,62.68
2018-03-19T18:52:11.864Z,64.07
2018-03-19T18:54:42.600Z,62.47
2018-03-19T18:57:13.365Z,63.50
2018-03-19T18:59:44.112Z,64.75
2018-03-19T19:02:14.879Z,63.54
2018-03-19T19:04:45.616Z,63.85
2018-03-19T19:07:16.365Z,63.65
2018-03-19T19:09:47.104Z,62.34
2018-03-19T19:12:17.857Z,62.60
2018-03-19T19:14:48.605Z,61.55
2018-03-19T19:17:19.362Z,60.75
2018-03-19T19:19:50.116Z,61.21
2018-03-19T19:22:20.880Z,61.58
2018-03-19T19:24:51.618Z,60.87
2018-03-19T19:27:22.373Z,61.38
2018-03-19T19:29:53.120Z,62.53
2018-03-19T19:32:23.872Z,62.89
2018-03-19T19:34:54.604Z,61.20
2018-03-19T19:37:25.352Z,60.91
2018-03-19T19:39:56.092Z,61.52
2018-03-19T19:42:26.851Z,61.38
2018-03-19T19:44:57.580Z,63.12
2018-03-19T19:47:28.327Z,61.33
2018-03-19T19:49:59.081Z,61.46
2018-03-19T19:52:29.841Z,61.69
2018-03-19T19:55:00.572Z,63.45
2018-03-19T19:57:31.312Z,62.25
2018-03-19T20:00:02.057Z,62.76
2018-03-19T20:02:32.816Z,63.21
2018-03-19T20:05:03.552Z,61.64
2018-03-19T20:07:34.329Z,61.91
2018-03-19T20:10:05.060Z,63.75
2018-03-19T20:12:35.809Z,62.06
2018-03-19T20:15:06.580Z,61.72
2018-03-19T20:17:37.345Z,63.01
2018-03-19T20:20:08.074Z,63.97
2018-03-19T20:22:38.833Z,63.76
2018-03-19T20:25:09.597Z,63.10
2018-03-19T20:27:40.344Z,64.63
2018-03-19T20:30:11.072Z,62.11
2018-03-19T20:32:41.832Z,62.39
2018-03-19T20:35:12.564Z,62.00
2018-03-19T20:37:43.313Z,62.55
2018-03-19T20:40:20.980Z,62.27
2018-03-19T20:42:51.765Z,62.41
2018-03-19T20:45:22.513Z,64.93
2018-03-19T20:47:53.292Z,63.72
2018-03-19T20:50:24.037Z,62.68
2018-03-19T20:52:54.796Z,64.10
2018-03-19T20:55:25.536Z,64.00
2018-03-19T20:57:56.289Z,62.19
2018-03-19T21:00:27.024Z,62.43
2018-03-19T21:02:57.793Z,63.91
2018-03-19T21:05:28.532Z,62.66
2018-03-19T21:07:59.285Z,63.08
2018-03-19T21:10:30.022Z,62.13
2018-03-19T21:13:00.781Z,64.39
2018-03-19T21:15:31.520Z,65.05
2018-03-19T21:18:02.308Z,64.52
2018-03-19T21:20:33.116Z,65.24
2018-03-19T21:23:03.880Z,62.49
2018-03-19T21:25:34.641Z,63.73
2018-03-19T21:28:05.402Z,64.84
2018-03-19T21:30:36.162Z,63.59
2018-03-19T21:33:06.950Z,64.97
2018-03-19T21:35:37.768Z,65.16
2018-03-19T21:38:08.517Z,64.89
2018-03-19T21:40:39.280Z,65.29
2018-03-19T21:43:10.053Z,65.29
2018-03-19T21:45:40.856Z,65.59
2018-03-19T21:48:11.640Z,65.89
2018-03-19T21:50:42.397Z,63.74
2018-03-19T21:53:13.177Z,64.30
2018-03-19T21:55:43.949Z,64.56
2018-03-19T21:58:14.730Z,64.86
2018-03-19T22:00:45.460Z,63.59
2018-03-19T22:03:16.208Z,65.21
2018-03-19T22:05:46.949Z,64.50
2018-03-19T22:08:17.701Z,64.79
2018-03-19T22:10:48.432Z,64.21
2018-03-19T22:13:19.262Z,64.28
2018-03-19T22:15:50.025Z,63.53
2018-03-19T22:18:20.780Z,65.20
2018-03-19T22:20:51.517Z,65.31
2018-03-19T22:23:22.282Z,64.59
2018-03-19T22:25:53.056Z,65.51
2018-03-19T22:28:23.814Z,65.34
2018-03-19T22:30:54.559Z,65.07
2018-03-19T22:33:25.306Z,65.68
2018-03-19T22:35:56.033Z,64.67
2018-03-19T22:38:26.796Z,63.85
2018-03-19T22:40:57.528Z,64.11
2018-03-19T22:43:28.296Z,62.68
2018-03-19T22:45:59.028Z,62.96
2018-03-19T22:48:29.794Z,62.79
2018-03-19T22:51:00.537Z,64.29
2018-03-19T22:53:31.298Z,64.02
2018-03-19T22:56:02.047Z,64.09
2018-03-19T22:58:32.804Z,65.46
2018-03-19T23:01:03.584Z,63.95
2018-03-19T23:03:34.365Z,65.05
2018-03-19T23:06:05.145Z,64.69
2018-03-19T23:08:35.949Z,64.70
2018-03-19T23:11:06.721Z,65.49
2018-03-19T23:13:37.530Z,65.52
2018-03-19T23:16:08.276Z,64.53
2018-03-19T23:18:39.025Z,65.35
2018-03-19T23:21:09.785Z,66.42
2018-03-19T23:23:40.532Z,65.28
2018-03-19T23:26:11.264Z,65.00
2018-03-19T23:28:42.009Z,64.67
2018-03-19T23:31:12.750Z,65.47
2018-03-19T23:33:43.509Z,65.92
2018-03-19T23:36:14.253Z,65.42
2018-03-19T23:38:45.053Z,65.11
2018-03-19T23:41:15.796Z,65.36
2018-03-19T23:43:46.560Z,66.20
2018-03-19T23:46:17.298Z,65.89
2018-03-19T23:48:48.061Z,65.24
2018-03-19T23:51:18.797Z,65.54
2018-03-19T23:53:49.532Z,65.68
2018-03-19T23:56:20.264Z,66.03
2018-03-19T23:58:51.049Z,65.78
